Flight Track Log - Related Links

Times and Time Zones

All times are in EDT time to prevent confusion due to time zone crossing. See the EJA604 flight status page for this flight to view local times or setup timezone preferences in your user account.

Time Position Orientation Groundspeed Altitude Reporting Facility
EDT Latitude Longitude Course Direction KTS MPH feet Rate Location/Type
Thu 05:36:00 PM 36.1000 -86.6833 270° West 146 168 1,300  Level Nashville TRACON
Thu 05:37:00 PM 36.1153 -86.8079 258° West  Level FlightAware Approximate
Thu 05:37:42 PM 36.1000 -86.8000 258° West 275 316 4,000  Level Nashville TRACON
Thu 05:38:18 PM 36.1000 -86.8667 270° West 283 326 4,000 1,582 Level Nashville TRACON
Thu 05:39:32 PM 36.1100 -86.9658 277° West 289 333 6,900 2,910 Climbing Memphis Center
Thu 05:40:32 PM 36.1064 -87.0583 267° West 270 311 10,500 3,500 Climbing Memphis Center
Thu 05:41:32 PM 36.1211 -87.1450 282° West 270 311 13,900 3,150 Climbing Memphis Center
Thu 05:42:32 PM 36.1836 -87.2225 315° West 266 306 16,800 2,650 Climbing Memphis Center
Thu 05:43:32 PM 36.1753 -87.3103 263° West 262 302 19,200 2,200 Climbing Memphis Center
Thu 05:44:32 PM 36.1464 -87.4114 251° West 274 315 21,200 1,850 Climbing Memphis Center
Thu 05:45:32 PM 36.1136 -87.5181 249° West 320 368 22,900 1,050 Climbing Memphis Center
Thu 05:46:32 PM 36.0767 -87.6375 249° West 358 412 23,300 950 Climbing Memphis Center
Thu 05:47:32 PM 36.0417 -87.7617 251° West 383 441 24,800 1,350 Climbing Memphis Center
Thu 05:48:32 PM 36.0233 -87.8881 260° West 383 441 26,000 1,250 Climbing Memphis Center
Thu 05:49:32 PM 36.0072 -88.0169 261° West 383 441 27,300 1,250 Climbing Memphis Center
Thu 05:50:32 PM 35.9950 -88.1431 263° West 381 438 28,500 1,200 Climbing Memphis Center
Thu 05:51:32 PM 35.9617 -88.2644 251° West 375 432 29,700 750 Climbing Memphis Center
Thu 05:52:32 PM 35.9219 -88.3858 248° West 380 437 30,000 150 Climbing Memphis Center
Thu 05:53:32 PM 35.8822 -88.5125 249° West 392 451 30,000 600 Level Memphis Center
Thu 05:55:32 PM 35.8022 -88.7625 249° West 398 458 31,800 1,200 Climbing Memphis Center
Thu 05:56:32 PM 35.7661 -88.8756 249° West 393 452 33,600 1,800 Climbing Memphis Center
Thu 05:57:32 PM 35.7319 -88.9889 250° West 373 429 35,400 1,600 Climbing Memphis Center
Thu 05:58:32 PM 35.6975 -89.0967 249° West 358 412 36,800 1,200 Climbing Memphis Center
Thu 05:59:32 PM 35.6694 -89.2069 253° West 347 399 37,800 900 Climbing Memphis Center
Thu 06:00:32 PM 35.6369 -89.3047 248° West 347 399 38,600 800 Climbing Memphis Center
Thu 06:01:32 PM 35.6025 -89.4200 250° West 352 405 39,400 700 Climbing Memphis Center
Thu 06:02:32 PM 35.5656 -89.5325 248° West 352 405 40,000 300 Climbing Memphis Center
Thu 06:03:32 PM 35.5269 -89.6531 249° West 365 420 40,000  Level Memphis Center
Thu 06:04:32 PM 35.4878 -89.7783 249° West 381 438 40,000  Level Memphis Center
Thu 06:05:32 PM 35.4467 -89.9033 248° West 396 456 40,000  Level Memphis Center
Thu 06:06:32 PM 35.4053 -90.0336 249° West 402 463 40,000  Level Memphis Center
Thu 06:07:32 PM 35.3639 -90.1636 249° West 408 470 40,000  Level Memphis Center
Thu 06:08:32 PM 35.3222 -90.2858 247° West 408 470 40,000  Level Memphis Center
Thu 06:09:32 PM 35.2786 -90.4156 248° West 413 475 40,000  Level Memphis Center
Thu 06:10:32 PM 35.2325 -90.5553 248° West 413 475 40,000  Level Memphis Center
Thu 06:11:32 PM 35.1883 -90.6847 247° West 408 470 40,000  Level Memphis Center
Thu 06:12:32 PM 35.1483 -90.8117 249° West 413 475 40,000  Level Memphis Center
Thu 06:13:32 PM 35.1061 -90.9408 248° West 413 475 40,000  Level Memphis Center
Thu 06:14:32 PM 35.0639 -91.0625 247° West 404 465 40,000  Level Memphis Center
Thu 06:15:32 PM 35.0214 -91.1914 248° West 404 465 40,000  Level Memphis Center
Thu 06:16:32 PM 34.9767 -91.3150 246° West 404 465 40,000  Level Memphis Center
Thu 06:17:32 PM 34.9381 -91.4236 247° West 404 465 40,000  Level Memphis Center
Thu 06:18:32 PM 34.8933 -91.5497 247° West 404 465 40,000  Level Memphis Center
Thu 06:19:32 PM 34.8481 -91.6881 248° West 409 471 40,000  Level Memphis Center
Thu 06:20:32 PM 34.8114 -91.7989 248° West 402 463 40,000  Level Memphis Center
Thu 06:21:32 PM 34.7661 -91.9219 246° West 402 463 40,000  Level Memphis Center
Thu 06:22:32 PM 34.7206 -92.0475 246° West 402 463 40,000  Level Memphis Center
Thu 06:23:32 PM 34.6814 -92.1678 248° West 397 457 40,000  Level Memphis Center
Thu 06:24:32 PM 34.6481 -92.2958 252° West 397 457 40,000  Level Memphis Center
Thu 06:25:32 PM 34.6083 -92.4364 251° West 397 457 40,000  Level Memphis Center
Thu 06:26:32 PM 34.5747 -92.5642 252° West 397 457 40,000  Level Memphis Center
Thu 06:27:32 PM 34.5411 -92.6944 253° West 408 470 40,000  Level Memphis Center
Thu 06:28:32 PM 34.5075 -92.8194 252° West 408 470 40,000  Level Memphis Center
Thu 06:29:32 PM 34.4714 -92.9494 251° West 408 470 40,000  Level Memphis Center
Thu 06:30:32 PM 34.4372 -93.0794 252° West 403 464 40,000  Level Memphis Center
Thu 06:31:32 PM 34.4031 -93.2092 252° West 403 464 40,000  Level Memphis Center
Thu 06:33:03 PM 34.3592 -93.3858 253° West 401 461 40,000  Level Fort Worth Center
Thu 06:34:03 PM 34.3256 -93.5083 252° West 401 461 40,000 -150 Level Fort Worth Center
Thu 06:35:03 PM 34.2897 -93.6331 251° West 395 455 39,700 -900 Descending Fort Worth Center
Thu 06:36:03 PM 34.2578 -93.7525 252° West 388 447 38,200 -1,600 Descending Fort Worth Center
Thu 06:37:03 PM 34.2236 -93.8694 251° West 378 435 36,500 -1,100 Descending Fort Worth Center
Thu 06:38:03 PM 34.1894 -93.9939 252° West 383 441 36,000 -250 Descending Fort Worth Center
Thu 06:39:03 PM 34.1847 -94.1297 268° West 388 447 36,000  Level Fort Worth Center
Thu 06:40:03 PM 34.1881 -94.2625 272° West 394 453 36,000  Level Fort Worth Center
Thu 06:41:03 PM 34.1933 -94.3931 273° West 399 459 36,000 -700 Level Fort Worth Center
Thu 06:42:03 PM 34.1714 -94.5192 258° West 393 452 34,600 -1,550 Descending Fort Worth Center
Thu 06:43:03 PM 34.1364 -94.6408 251° West 386 444 32,900 -1,700 Descending Fort Worth Center
Thu 06:44:03 PM 34.1036 -94.7647 252° West 392 451 31,200 -1,700 Descending Fort Worth Center
Thu 06:45:03 PM 34.0689 -94.8911 252° West 392 451 29,500 -1,700 Descending Fort Worth Center
Thu 06:46:03 PM 34.0336 -95.0125 251° West 392 451 27,800 -1,700 Descending Fort Worth Center
Thu 06:47:03 PM 33.9983 -95.1436 252° West 398 458 26,100 -1,700 Descending Fort Worth Center
Thu 06:48:03 PM 33.9653 -95.2672 252° West 398 458 24,400 -1,050 Descending Fort Worth Center
Thu 06:49:03 PM 33.9297 -95.3908 251° West 398 458 24,000 -500 Descending Fort Worth Center
Thu 06:50:03 PM 33.8939 -95.5142 251° West 398 458 23,400 -1,000 Descending Fort Worth Center
Thu 06:51:03 PM 33.8603 -95.6350 252° West 392 451 22,000 -1,550 Descending Fort Worth Center
Thu 06:52:03 PM 33.8242 -95.7483 249° West 381 438 20,300 -1,550 Descending Fort Worth Center
Thu 06:53:03 PM 33.7775 -95.8542 242° Southwest 364 419 18,900 -1,350 Descending Fort Worth Center
Thu 06:54:03 PM 33.7331 -95.9597 243° Southwest 364 419 17,600 -1,750 Descending Fort Worth Center
Thu 06:55:03 PM 33.6842 -96.0731 243° Southwest 358 412 15,400 -1,850 Descending Fort Worth Center
Thu 06:56:03 PM 33.6414 -96.1658 241° Southwest 351 404 13,900 -1,650 Descending Fort Worth Center
Thu 06:57:03 PM 33.5964 -96.2689 242° Southwest 339 390 12,100 -1,550 Descending Fort Worth Center
Thu 06:58:03 PM 33.5594 -96.3542 243° Southwest 327 376 10,800 -1,450 Descending Fort Worth Center
Thu 06:59:03 PM 33.5144 -96.4542 242° Southwest 327 376 9,200 -900 Descending Fort Worth Center
Thu 07:00:03 PM 33.4817 -96.5294 242° Southwest 297 342 9,000 -100 Descending Fort Worth Center
Thu 07:01:03 PM 33.4383 -96.6094 237° Southwest 289 333 9,000 -50 Level Fort Worth Center
Thu 07:02:03 PM 33.3761 -96.6822 224° Southwest 289 333 8,900 -900 Descending Fort Worth Center
Thu 07:03:03 PM 33.3681 -96.7642 263° West 268 308 7,200 -1,650 Descending Fort Worth Center
Thu 07:04:03 PM 33.3581 -96.8589 263° West 268 308 5,600 -1,550 Descending Fort Worth Center
Thu 07:05:03 PM 33.3439 -96.9286 256° West 252 290 4,100 -800 Descending Fort Worth Center
Thu 07:06:03 PM 33.2814 -96.9936 221° Southwest 277 319 4,000 -100 Descending Fort Worth Center
Thu 07:07:03 PM 33.2253 -97.0433 217° Southwest 277 319 3,900  Descending Fort Worth Center
Thu 07:08:03 PM 33.1608 -97.1058 219° Southwest 277 319 4,000 50 Climbing Fort Worth Center
Thu 07:09:03 PM 33.1025 -97.1581 217° Southwest 284 327 4,000  Level Fort Worth Center
Thu 07:10:03 PM 33.0358 -97.2203 218° Southwest 284 327 4,000 -150 Level Fort Worth Center
Thu 07:11:03 PM 32.9772 -97.2600 210° Southwest 284 327 3,700 -371 Descending Fort Worth Center
Thu 07:13:33 PM 32.8000 -97.2667 182° South 232 267 2,700 -306 Descending Dallas / Fort Worth TRACON
Thu 07:14:39 PM 32.7333 -97.2667 180° South 231 266 2,600 48 Descending Dallas / Fort Worth TRACON
Thu 07:15:39 PM 32.6667 -97.2667 180° South 241 277 2,800 -158 Climbing Dallas / Fort Worth TRACON
Thu 07:16:33 PM 32.6667 -97.3167 270° West 147 169 2,300 -200 Descending Dallas / Fort Worth TRACON
Thu 07:17:39 PM 32.7000 -97.3333 337° Northwest 165 190 2,400 -95 Climbing Dallas / Fort Worth TRACON
Thu 07:18:39 PM 32.7500 -97.3500 344° North 137 158 2,100 -300 Descending Dallas / Fort Worth TRACON

Login

Don't have an account? Register now (free) for customized features, flight alerts, and more!